Portada
METAR-TAF:

METAR-TAF

Aeroports :

Parnaíba, Piauí, Brasil

latitud: 02-55S, longitud: 041-45W, altitud: 5 m

Observació

L'informe es va fer fa 12 hores i 49 minuts, a les 21:45 UTC
Vent 6 kt del Est/Nord-Est
Temperatura 27°C
Humitat 84%
Pressió 1011 hPa
Visibilitat 10 km o més
Escasses núvols a una alçada de 3000 ft

METAR: SBPB 222145Z 07006KT 9999 FEW030 27/24 Q1011

Hora: 07:34 (10:34 UTC)

Pronòstic

L'informe es va fer fa 6 hores i 34 minuts, a les 04:00 UTC
Pronòstic vàlid del 23 a les 06 UTC al 23 a les 18 UTC
Vent 10 kt del Est/Nord-Est
Visibilitat 10 km o més
Escasses núvols a una alçada de 1500 ft
Evolucionant progressivament
l' 23 a les 14 UTC al 23 a les 16 UTC
Núvols disperses a una alçada de 2000 ft

TAF: SBPB 230400Z 2306/2318 06010KT 9999 FEW015 TN24/2311Z TX33/2317Z BECMG 2314/2316 SCT020 RMK PFM

Observacions i pronòstics meteorològics de més de 4000 aeroports (METAR i TAF).

Les estacions disponibles són els punts grocs i vermells al mapa.

Posi el ratolí al punt desitjat per veure el nom de l'estació.

Feu clic per veure les observacions i els pronòstics meteorològics.

Per canviar el mapa: feu clic els botons verds amb una creu de color negre per apropar; al botó verd amb un guió per allunyar la imatge; o en les fletxes verdes per a mapes adjacents.


METAR-TAF: